createdAt,value
2023-03-21T00:00:33.446Z,92.46
2023-03-21T00:01:33.424Z,92.46
2023-03-21T00:02:33.548Z,92.67
2023-03-21T00:03:33.510Z,92.87
2023-03-21T00:04:48.579Z,92.77
2023-03-21T00:05:34.484Z,93.49
2023-03-21T00:06:33.359Z,93.44
2023-03-21T00:07:33.345Z,93.04
2023-03-21T00:08:33.337Z,92.52
2023-03-21T00:09:33.323Z,92.32
2023-03-21T00:10:41.678Z,92.42
2023-03-21T00:11:34.321Z,92.11
2023-03-21T00:12:33.284Z,91.49
2023-03-21T00:13:33.268Z,91.49
2023-03-21T00:14:33.256Z,91.70
2023-03-21T00:15:44.135Z,91.70
2023-03-21T00:16:39.841Z,91.39
2023-03-21T00:17:34.246Z,91.29
2023-03-21T00:18:33.214Z,91.08
2023-03-21T00:19:33.183Z,90.98
2023-03-21T00:20:33.192Z,90.88
2023-03-21T00:21:46.588Z,90.67
2023-03-21T00:22:34.169Z,90.57
2023-03-21T00:23:33.131Z,90.88
2023-03-21T00:24:33.119Z,91.19
2023-03-21T00:25:33.114Z,91.08
2023-03-21T00:26:33.097Z,91.02
2023-03-21T00:27:53.266Z,91.08
2023-03-21T00:28:34.097Z,91.13
2023-03-21T00:29:33.055Z,90.92
2023-03-21T00:30:33.041Z,90.78
2023-03-21T00:31:33.277Z,90.88
2023-03-21T00:32:35.655Z,91.13
2023-03-21T00:33:34.021Z,91.74
2023-03-21T00:34:43.379Z,91.85
2023-03-21T00:35:57.792Z,91.70
2023-03-21T00:36:34.038Z,91.85
2023-03-21T00:37:32.954Z,91.95
2023-03-21T00:38:32.951Z,91.64
2023-03-21T00:39:32.918Z,91.13
2023-03-21T00:40:35.353Z,91.02
2023-03-21T00:41:43.189Z,91.13
2023-03-21T00:42:33.908Z,91.23
2023-03-21T00:43:32.865Z,91.33
2023-03-21T00:44:32.862Z,91.44
2023-03-21T00:45:32.856Z,91.64
2023-03-21T00:46:42.745Z,91.99
2023-03-21T00:47:33.889Z,92.25
2023-03-21T00:48:32.802Z,92.25
2023-03-21T00:49:32.791Z,92.05
2023-03-21T00:50:32.777Z,91.85
2023-03-21T00:51:32.755Z,91.74
2023-03-21T00:52:40.522Z,91.74
2023-03-21T00:53:33.769Z,91.74
2023-03-21T00:54:32.716Z,92.16
2023-03-21T00:55:32.707Z,92.46
2023-03-21T00:56:32.709Z,92.46
2023-03-21T00:57:39.036Z,92.46
2023-03-21T00:58:33.701Z,91.74
2023-03-21T00:59:32.659Z,91.44
2023-03-21T01:00:32.661Z,91.33
2023-03-21T01:01:32.840Z,91.33
2023-03-21T01:02:32.609Z,91.44
2023-03-21T01:03:32.599Z,91.85
2023-03-21T01:04:32.594Z,91.74
2023-03-21T01:05:32.575Z,91.78
2023-03-21T01:06:32.571Z,91.64
2023-03-21T01:07:32.554Z,91.44
2023-03-21T01:08:44.541Z,91.44
2023-03-21T01:09:33.550Z,91.53
2023-03-21T01:10:32.512Z,91.85
2023-03-21T01:11:32.513Z,91.85
2023-03-21T01:12:32.483Z,92.05
2023-03-21T01:13:34.585Z,92.16
2023-03-21T01:14:32.453Z,92.30
2023-03-21T01:15:32.435Z,92.20
2023-03-21T01:16:32.628Z,92.10
2023-03-21T01:17:32.407Z,91.99
2023-03-21T01:18:32.398Z,92.20
2023-03-21T01:19:48.690Z,92.36
2023-03-21T01:20:33.396Z,92.25
2023-03-21T01:21:32.363Z,92.05
2023-03-21T01:22:32.349Z,91.85
2023-03-21T01:23:32.333Z,91.95
2023-03-21T01:24:33.853Z,92.16
2023-03-21T01:25:32.311Z,92.20
2023-03-21T01:26:32.304Z,92.16
2023-03-21T01:27:32.283Z,92.16
2023-03-21T01:28:32.266Z,92.25
2023-03-21T01:29:32.260Z,92.16
2023-03-21T01:30:37.057Z,91.95
2023-03-21T01:31:33.300Z,92.10
2023-03-21T01:32:32.218Z,92.16
2023-03-21T01:33:32.204Z,91.99
2023-03-21T01:34:32.194Z,92.25
2023-03-21T01:35:40.919Z,92.25
2023-03-21T01:36:33.271Z,92.67
2023-03-21T01:37:32.142Z,92.46
2023-03-21T01:38:32.136Z,92.36
2023-03-21T01:39:32.115Z,92.25
2023-03-21T01:40:32.130Z,92.16
2023-03-21T01:41:45.074Z,92.61
2023-03-21T01:42:33.107Z,92.57
2023-03-21T01:43:32.061Z,92.57
2023-03-21T01:44:32.058Z,92.46
2023-03-21T01:45:32.108Z,92.57
2023-03-21T01:46:37.251Z,92.46
2023-03-21T01:47:33.043Z,92.50
2023-03-21T01:48:32.002Z,91.95
2023-03-21T01:49:31.987Z,91.85
2023-03-21T01:50:31.975Z,92.05
2023-03-21T01:51:31.962Z,91.95
2023-03-21T01:52:39.241Z,91.85
2023-03-21T01:53:32.955Z,92.05
2023-03-21T01:54:31.914Z,92.57
2023-03-21T01:55:32.002Z,92.67
2023-03-21T01:56:31.909Z,92.73
2023-03-21T01:57:40.371Z,92.87
2023-03-21T01:58:32.973Z,92.92
2023-03-21T01:59:31.849Z,92.87
2023-03-21T02:00:31.854Z,92.97
2023-03-21T02:01:31.827Z,92.57
2023-03-21T02:02:32.166Z,92.36
2023-03-21T02:03:36.163Z,92.25
2023-03-21T02:04:31.788Z,92.57
2023-03-21T02:05:31.771Z,92.67
2023-03-21T02:06:31.878Z,92.57
2023-03-21T02:07:31.749Z,92.05
2023-03-21T02:08:39.308Z,91.85
2023-03-21T02:09:32.736Z,91.80
2023-03-21T02:10:31.704Z,91.95
2023-03-21T02:11:31.690Z,91.85
2023-03-21T02:12:31.704Z,91.91
2023-03-21T02:13:31.921Z,91.95
2023-03-21T02:14:31.649Z,92.05
2023-03-21T02:15:31.785Z,92.46
2023-03-21T02:16:31.679Z,92.77
2023-03-21T02:17:31.663Z,92.87
2023-03-21T02:18:31.949Z,92.73
2023-03-21T02:19:37.212Z,92.83
2023-03-21T02:20:32.598Z,92.77
2023-03-21T02:21:31.765Z,93.24
2023-03-21T02:22:31.699Z,92.87
2023-03-21T02:23:31.531Z,92.42
2023-03-21T02:24:31.520Z,92.46
2023-03-21T02:25:31.500Z,92.25
2023-03-21T02:26:41.178Z,92.21
2023-03-21T02:27:32.502Z,92.21
2023-03-21T02:28:31.502Z,91.91
2023-03-21T02:29:31.448Z,91.74
2023-03-21T02:30:37.453Z,91.60
2023-03-21T02:31:32.529Z,92.01
2023-03-21T02:32:37.465Z,91.70
2023-03-21T02:33:32.437Z,91.39
2023-03-21T02:34:31.438Z,91.64
2023-03-21T02:35:32.255Z,91.60
2023-03-21T02:36:31.452Z,91.60
2023-03-21T02:37:37.697Z,91.64
2023-03-21T02:38:32.350Z,91.74
2023-03-21T02:39:31.325Z,92.16
2023-03-21T02:40:31.313Z,92.25
2023-03-21T02:41:38.239Z,92.16
2023-03-21T02:42:32.308Z,92.16
2023-03-21T02:43:31.291Z,92.21
2023-03-21T02:44:31.285Z,92.46
2023-03-21T02:45:31.270Z,92.46
2023-03-21T02:46:41.780Z,92.46
2023-03-21T02:47:32.244Z,92.36
2023-03-21T02:48:44.541Z,92.42
2023-03-21T02:49:32.205Z,92.46
2023-03-21T02:50:31.169Z,92.77
2023-03-21T02:51:31.156Z,92.87
2023-03-21T02:52:38.755Z,92.73
2023-03-21T02:53:32.162Z,92.77
2023-03-21T02:54:47.061Z,92.57
2023-03-21T02:55:32.159Z,92.16
2023-03-21T02:56:31.098Z,91.85
2023-03-21T02:57:41.852Z,91.95
2023-03-21T02:58:32.104Z,92.16
2023-03-21T02:59:31.285Z,92.46
2023-03-21T03:00:31.090Z,92.87
2023-03-21T03:01:31.063Z,92.97
2023-03-21T03:02:31.021Z,93.18
2023-03-21T03:03:34.693Z,93.18
2023-03-21T03:04:31.127Z,93.39
2023-03-21T03:05:30.976Z,93.08
2023-03-21T03:06:30.966Z,92.42
2023-03-21T03:07:30.946Z,92.57
2023-03-21T03:08:41.282Z,93.08
2023-03-21T03:09:31.954Z,93.49
2023-03-21T03:10:30.914Z,93.44
2023-03-21T03:11:31.199Z,93.59
2023-03-21T03:12:30.881Z,93.44
2023-03-21T03:13:30.871Z,93.39
2023-03-21T03:14:53.080Z,93.18
2023-03-21T03:15:31.922Z,92.97
2023-03-21T03:16:30.851Z,93.08
2023-03-21T03:17:30.820Z,92.83
2023-03-21T03:18:30.808Z,93.04
2023-03-21T03:19:34.463Z,93.29
2023-03-21T03:20:30.778Z,93.12
2023-03-21T03:21:30.761Z,92.87
2023-03-21T03:22:30.750Z,92.93
2023-03-21T03:23:30.772Z,92.77
2023-03-21T03:24:30.725Z,92.77
2023-03-21T03:25:42.104Z,92.97
2023-03-21T03:26:31.871Z,92.97
2023-03-21T03:27:30.681Z,92.87
2023-03-21T03:28:30.665Z,93.18
2023-03-21T03:29:30.655Z,93.08
2023-03-21T03:30:41.305Z,93.33
2023-03-21T03:31:31.732Z,93.43
2023-03-21T03:32:30.637Z,93.18
2023-03-21T03:33:30.596Z,93.18
2023-03-21T03:34:30.583Z,93.39
2023-03-21T03:35:30.693Z,93.23
2023-03-21T03:36:32.836Z,93.23
2023-03-21T03:37:30.547Z,93.43
2023-03-21T03:38:30.535Z,93.43
2023-03-21T03:39:30.516Z,93.54
2023-03-21T03:40:30.510Z,93.84
2023-03-21T03:41:50.301Z,93.95
2023-03-21T03:42:31.505Z,93.84
2023-03-21T03:43:30.466Z,93.54
2023-03-21T03:44:30.447Z,93.54
2023-03-21T03:45:30.433Z,93.64
2023-03-21T03:46:30.446Z,93.79
2023-03-21T03:47:34.952Z,93.54
2023-03-21T03:48:31.523Z,94.09
2023-03-21T03:49:30.382Z,94.46
2023-03-21T03:50:30.375Z,94.51
2023-03-21T03:51:30.358Z,94.51
2023-03-21T03:52:30.371Z,94.40
2023-03-21T03:53:30.331Z,94.65
2023-03-21T03:54:30.322Z,94.51
2023-03-21T03:55:30.307Z,94.30
2023-03-21T03:56:30.295Z,94.34
2023-03-21T03:57:30.276Z,94.55
2023-03-21T03:58:39.767Z,94.76
2023-03-21T03:59:31.378Z,95.00
2023-03-21T04:00:30.243Z,95.17
2023-03-21T04:01:30.349Z,95.42
2023-03-21T04:02:30.359Z,95.83
2023-03-21T04:03:39.231Z,95.68
2023-03-21T04:04:31.251Z,95.93
2023-03-21T04:05:30.169Z,96.24
2023-03-21T04:06:30.157Z,96.34
2023-03-21T04:07:30.145Z,96.24
2023-03-21T04:08:30.150Z,96.70
2023-03-21T04:09:43.215Z,96.80
2023-03-21T04:10:31.132Z,96.91
2023-03-21T04:11:30.097Z,97.01
2023-03-21T04:12:30.097Z,97.21
2023-03-21T04:13:30.090Z,97.42
2023-03-21T04:14:42.018Z,97.42
2023-03-21T04:15:31.072Z,97.42
2023-03-21T04:16:30.071Z,97.56
2023-03-21T04:17:30.013Z,97.67
2023-03-21T04:18:29.998Z,97.77
2023-03-21T04:19:29.988Z,97.98
2023-03-21T04:20:36.855Z,97.77
2023-03-21T04:21:31.002Z,98.29
2023-03-21T04:22:29.946Z,98.80
2023-03-21T04:23:29.939Z,98.91
2023-03-21T04:24:29.924Z,98.80
2023-03-21T04:25:33.829Z,98.70
2023-03-21T04:26:29.894Z,99.01
2023-03-21T04:27:29.886Z,98.91
2023-03-21T04:28:29.879Z,99.26
2023-03-21T04:29:30.010Z,99.37
2023-03-21T04:30:29.844Z,99.26
2023-03-21T04:31:29.882Z,98.96
2023-03-21T04:32:29.821Z,98.79
2023-03-21T04:33:29.803Z,99.16
2023-03-21T04:34:29.785Z,99.37
2023-03-21T04:35:29.788Z,99.68
2023-03-21T04:36:29.783Z,99.82
2023-03-21T04:37:29.753Z,99.99
2023-03-21T04:38:29.736Z,99.99
2023-03-21T04:39:29.723Z,99.99
2023-03-21T04:40:29.710Z,99.99
2023-03-21T04:41:29.702Z,99.99
2023-03-21T04:42:29.682Z,99.99
2023-03-21T04:43:29.680Z,99.99
2023-03-21T04:44:29.652Z,99.99
2023-03-21T04:45:29.722Z,99.99
2023-03-21T04:46:29.623Z,99.99
2023-03-21T04:47:29.614Z,99.99
2023-03-21T04:48:29.600Z,99.99
2023-03-21T04:49:29.585Z,99.99
2023-03-21T04:50:29.571Z,99.99
2023-03-21T04:51:29.558Z,99.99
2023-03-21T04:52:29.564Z,99.99
2023-03-21T04:53:29.535Z,99.99
2023-03-21T04:54:29.528Z,99.99
2023-03-21T04:55:29.505Z,99.99
2023-03-21T04:56:29.484Z,99.99
2023-03-21T04:57:29.476Z,99.99
2023-03-21T04:58:29.461Z,99.99
2023-03-21T04:59:29.445Z,99.99
2023-03-21T05:00:29.429Z,99.99
2023-03-21T05:01:29.757Z,99.99
2023-03-21T05:02:29.405Z,99.99
2023-03-21T05:03:29.395Z,99.99
2023-03-21T05:04:29.380Z,99.99
2023-03-21T05:05:29.367Z,99.99
2023-03-21T05:06:29.351Z,99.99
2023-03-21T05:07:29.341Z,99.99
2023-03-21T05:08:29.349Z,99.99
2023-03-21T05:09:29.325Z,99.99
2023-03-21T05:10:29.308Z,99.99
2023-03-21T05:11:29.563Z,99.99
2023-03-21T05:12:29.294Z,99.99
2023-03-21T05:13:29.267Z,99.99
2023-03-21T05:14:29.240Z,99.99
2023-03-21T05:15:29.248Z,99.99
2023-03-21T05:16:29.336Z,99.99
2023-03-21T05:17:29.208Z,99.99
2023-03-21T05:18:29.189Z,99.99
2023-03-21T05:19:29.179Z,99.99
2023-03-21T05:20:29.161Z,99.99
2023-03-21T05:21:29.151Z,99.99
2023-03-21T05:22:29.166Z,99.99
2023-03-21T05:23:29.121Z,99.99
2023-03-21T05:24:29.158Z,99.99
2023-03-21T05:25:29.094Z,99.99
2023-03-21T05:26:29.080Z,99.90
2023-03-21T05:27:29.071Z,99.90
2023-03-21T05:28:29.052Z,99.99
2023-03-21T05:29:29.044Z,99.99
2023-03-21T05:30:29.035Z,99.99
2023-03-21T05:31:29.027Z,99.99
2023-03-21T05:32:29.001Z,99.99
2023-03-21T05:33:28.995Z,99.99
2023-03-21T05:34:28.978Z,99.90
2023-03-21T05:35:28.974Z,99.90
2023-03-21T05:36:28.945Z,99.99
2023-03-21T05:37:28.934Z,99.99
2023-03-21T05:38:28.922Z,99.69
2023-03-21T05:39:28.911Z,99.58
2023-03-21T05:40:28.922Z,99.58
2023-03-21T05:41:28.880Z,99.73
2023-03-21T05:42:28.866Z,99.69
2023-03-21T05:43:28.856Z,99.48
2023-03-21T05:44:28.843Z,99.43
2023-03-21T05:45:28.853Z,98.97
2023-03-21T05:46:28.840Z,98.76
2023-03-21T05:47:28.811Z,98.45
2023-03-21T05:48:28.795Z,98.29
2023-03-21T05:49:28.776Z,98.19
2023-03-21T05:50:28.808Z,98.45
2023-03-21T05:51:28.752Z,98.70
2023-03-21T05:52:28.738Z,98.24
2023-03-21T05:53:28.731Z,98.19
2023-03-21T05:54:28.717Z,98.08
2023-03-21T05:55:28.702Z,98.08
2023-03-21T05:56:28.709Z,97.77
2023-03-21T05:57:28.695Z,97.77
2023-03-21T05:58:28.658Z,97.77
2023-03-21T05:59:28.644Z,97.98
2023-03-21T06:00:30.515Z,98.29
2023-03-21T06:01:28.618Z,98.70
2023-03-21T06:02:28.685Z,98.19
2023-03-21T06:03:28.675Z,98.14
2023-03-21T06:04:28.577Z,99.52
2023-03-21T06:05:28.570Z,99.27
2023-03-21T06:06:28.565Z,98.60
2023-03-21T06:07:28.569Z,98.39
2023-03-21T06:08:28.540Z,98.08
2023-03-21T06:09:28.514Z,98.03
2023-03-21T06:10:28.508Z,98.55
2023-03-21T06:11:28.489Z,98.03
2023-03-21T06:12:28.495Z,98.35
2023-03-21T06:13:28.614Z,97.77
2023-03-21T06:14:28.454Z,97.56
2023-03-21T06:15:28.438Z,97.56
2023-03-21T06:16:28.517Z,97.77
2023-03-21T06:17:28.403Z,97.47
2023-03-21T06:18:28.387Z,97.31
2023-03-21T06:19:28.390Z,97.01
2023-03-21T06:20:28.372Z,96.75
2023-03-21T06:21:28.360Z,96.03
2023-03-21T06:22:28.340Z,95.78
2023-03-21T06:23:28.344Z,93.64
2023-03-21T06:24:28.317Z,91.39
2023-03-21T06:25:28.303Z,89.70
2023-03-21T06:26:28.317Z,89.36
2023-03-21T06:27:28.284Z,88.04
2023-03-21T06:28:28.275Z,86.52
2023-03-21T06:29:28.244Z,85.05
2023-03-21T06:30:28.223Z,84.87
2023-03-21T06:31:28.282Z,82.54
2023-03-21T06:32:28.211Z,80.73
2023-03-21T06:33:28.190Z,79.16
2023-03-21T06:34:28.178Z,79.32
2023-03-21T06:35:28.200Z,77.18
2023-03-21T06:36:28.155Z,75.78
2023-03-21T06:37:28.141Z,75.48
2023-03-21T06:38:28.123Z,76.09
2023-03-21T06:39:28.111Z,77.22
2023-03-21T06:40:28.091Z,76.36
2023-03-21T06:41:28.084Z,75.58
2023-03-21T06:42:28.081Z,76.60
2023-03-21T06:43:28.068Z,77.42
2023-03-21T06:44:28.064Z,79.57
2023-03-21T06:45:28.032Z,77.11
2023-03-21T06:46:28.058Z,76.56
2023-03-21T06:47:28.000Z,75.31
2023-03-21T06:48:28.013Z,74.86
2023-03-21T06:49:27.983Z,75.07
2023-03-21T06:50:27.964Z,74.11
2023-03-21T06:51:27.977Z,73.40
2023-03-21T06:52:27.942Z,73.77
2023-03-21T06:53:27.930Z,72.72
2023-03-21T06:54:27.918Z,73.19
2023-03-21T06:55:27.897Z,71.43
2023-03-21T06:56:27.890Z,70.58
2023-03-21T06:57:27.903Z,69.46
2023-03-21T06:58:27.852Z,68.21
2023-03-21T06:59:27.858Z,68.21
2023-03-21T07:00:27.970Z,68.62
2023-03-21T07:01:27.823Z,69.43
2023-03-21T07:02:27.904Z,69.06
2023-03-21T07:03:27.803Z,68.82
2023-03-21T07:04:27.819Z,68.69
2023-03-21T07:05:27.771Z,67.57
2023-03-21T07:06:27.749Z,68.38
2023-03-21T07:07:27.753Z,67.13
2023-03-21T07:08:27.722Z,66.90
2023-03-21T07:09:27.721Z,65.78
2023-03-21T07:10:27.713Z,66.63
2023-03-21T07:11:27.707Z,65.84
2023-03-21T07:12:27.665Z,65.77
2023-03-21T07:13:27.658Z,67.60
2023-03-21T07:14:27.664Z,67.30
2023-03-21T07:15:27.628Z,70.14
2023-03-21T07:16:27.746Z,67.47
2023-03-21T07:17:27.609Z,66.72
2023-03-21T07:18:27.594Z,66.08
2023-03-21T07:19:27.579Z,64.56
2023-03-21T07:20:27.568Z,65.13
2023-03-21T07:21:27.553Z,66.46
2023-03-21T07:22:27.545Z,67.97
2023-03-21T07:23:27.526Z,66.72
2023-03-21T07:24:27.549Z,66.69
2023-03-21T07:25:27.514Z,66.92
2023-03-21T07:26:27.528Z,67.94
2023-03-21T07:27:27.482Z,68.55
2023-03-21T07:28:27.463Z,69.13
2023-03-21T07:29:27.453Z,67.54
2023-03-21T07:30:27.430Z,65.27
2023-03-21T07:31:27.496Z,65.07
2023-03-21T07:32:27.429Z,64.76
2023-03-21T07:33:27.397Z,65.17
2023-03-21T07:34:27.384Z,66.08
2023-03-21T07:35:27.363Z,67.34
2023-03-21T07:36:27.345Z,64.64
2023-03-21T07:37:27.359Z,60.03
2023-03-21T07:38:27.330Z,62.41
2023-03-21T07:39:27.309Z,61.47
2023-03-21T07:40:27.301Z,62.73
2023-03-21T07:41:27.284Z,62.19
2023-03-21T07:42:27.286Z,60.85
2023-03-21T07:43:27.255Z,59.64
2023-03-21T07:44:27.249Z,59.08
2023-03-21T07:45:27.294Z,58.01
2023-03-21T07:46:27.282Z,59.00
2023-03-21T07:47:27.207Z,55.09
2023-03-21T07:48:27.228Z,57.78
2023-03-21T07:49:27.231Z,55.94
2023-03-21T07:50:27.319Z,55.69
2023-03-21T07:51:27.151Z,54.75
2023-03-21T07:52:27.133Z,53.63
2023-03-21T07:53:27.122Z,56.52
2023-03-21T07:54:27.258Z,56.56
2023-03-21T07:55:27.143Z,58.23
2023-03-21T07:56:27.102Z,58.53
2023-03-21T07:57:27.080Z,60.07
2023-03-21T07:58:27.059Z,60.10
2023-03-21T07:59:27.048Z,61.17
2023-03-21T08:00:27.328Z,63.02
2023-03-21T08:01:27.117Z,61.36
2023-03-21T08:02:27.157Z,62.88
2023-03-21T08:03:27.010Z,65.34
2023-03-21T08:04:27.007Z,65.88
2023-03-21T08:05:26.972Z,63.48
2023-03-21T08:06:26.952Z,64.52
2023-03-21T08:07:26.947Z,65.84
2023-03-21T08:08:26.942Z,65.27
2023-03-21T08:09:26.924Z,66.32
2023-03-21T08:10:26.908Z,64.22
2023-03-21T08:11:26.946Z,66.25
2023-03-21T08:12:26.874Z,65.71
2023-03-21T08:13:26.861Z,66.02
2023-03-21T08:14:26.853Z,64.39
2023-03-21T08:15:26.878Z,64.97
2023-03-21T08:16:26.909Z,64.97
2023-03-21T08:17:26.807Z,63.14
2023-03-21T08:18:26.798Z,63.85
2023-03-21T08:19:26.792Z,67.20
2023-03-21T08:20:26.809Z,66.93
2023-03-21T08:21:26.761Z,64.97
2023-03-21T08:22:26.739Z,64.26
2023-03-21T08:23:26.729Z,63.75
2023-03-21T08:24:26.721Z,63.92
2023-03-21T08:25:26.728Z,63.52
2023-03-21T08:26:26.717Z,63.42
2023-03-21T08:27:26.681Z,62.45
2023-03-21T08:28:26.758Z,62.31
2023-03-21T08:29:26.748Z,61.35
2023-03-21T08:30:26.912Z,59.23
2023-03-21T08:31:26.793Z,56.96
2023-03-21T08:32:26.657Z,57.91
2023-03-21T08:33:26.599Z,56.92
2023-03-21T08:34:26.588Z,56.16
2023-03-21T08:35:26.767Z,53.97
2023-03-21T08:36:26.613Z,52.12
2023-03-21T08:37:26.549Z,51.44
2023-03-21T08:38:26.538Z,50.09
2023-03-21T08:39:26.803Z,49.08
2023-03-21T08:40:26.564Z,49.08
2023-03-21T08:41:26.488Z,49.54
2023-03-21T08:42:26.484Z,50.56
2023-03-21T08:43:26.463Z,50.44
2023-03-21T08:44:26.447Z,48.07
2023-03-21T08:45:26.442Z,46.34
2023-03-21T08:46:26.467Z,47.54
2023-03-21T08:47:26.416Z,50.82
2023-03-21T08:48:26.476Z,46.72
2023-03-21T08:49:26.388Z,45.31
2023-03-21T08:50:26.381Z,45.69
2023-03-21T08:51:26.371Z,46.00
2023-03-21T08:52:26.382Z,46.57
2023-03-21T08:53:26.336Z,46.83
2023-03-21T08:54:26.335Z,45.95
2023-03-21T08:55:26.314Z,43.73
2023-03-21T08:56:26.300Z,43.25
2023-03-21T08:57:26.285Z,43.65
2023-03-21T08:58:26.273Z,44.71
2023-03-21T08:59:26.255Z,44.53
2023-03-21T09:00:26.321Z,41.93
2023-03-21T09:01:26.361Z,43.05
2023-03-21T09:02:26.232Z,43.53
2023-03-21T09:03:26.210Z,43.23
2023-03-21T09:04:26.288Z,44.69
2023-03-21T09:05:26.176Z,43.47
2023-03-21T09:06:26.167Z,42.07
2023-03-21T09:07:26.156Z,41.66
2023-03-21T09:08:26.169Z,38.93
2023-03-21T09:09:26.126Z,40.50
2023-03-21T09:10:26.176Z,43.66
2023-03-21T09:11:26.103Z,43.84
2023-03-21T09:12:26.113Z,37.32
2023-03-21T09:13:26.081Z,39.84
2023-03-21T09:14:28.890Z,41.16
2023-03-21T09:15:26.060Z,40.04
2023-03-21T09:16:26.111Z,41.14
2023-03-21T09:17:26.032Z,39.84
2023-03-21T09:18:26.017Z,38.59
2023-03-21T09:19:26.022Z,42.07
2023-03-21T09:20:26.359Z,43.15
2023-03-21T09:21:25.990Z,38.46
2023-03-21T09:22:25.972Z,39.72
2023-03-21T09:23:25.949Z,42.32
2023-03-21T09:24:25.966Z,41.30
2023-03-21T09:25:25.932Z,39.42
2023-03-21T09:26:25.927Z,43.81
2023-03-21T09:27:25.905Z,41.89
2023-03-21T09:28:25.894Z,44.42
2023-03-21T09:29:25.887Z,47.31
2023-03-21T09:30:26.582Z,44.07
2023-03-21T09:31:25.911Z,43.53
2023-03-21T09:32:26.041Z,44.67
2023-03-21T09:33:25.881Z,41.66
2023-03-21T09:34:25.820Z,41.74
2023-03-21T09:35:25.804Z,41.30
2023-03-21T09:36:25.809Z,39.47
2023-03-21T09:37:25.795Z,39.59
2023-03-21T09:38:25.774Z,40.50
2023-03-21T09:39:25.754Z,40.32
2023-03-21T09:40:25.762Z,43.03
2023-03-21T09:41:25.755Z,43.73
2023-03-21T09:42:25.722Z,41.31
2023-03-21T09:43:25.705Z,39.03
2023-03-21T09:44:25.707Z,40.89
2023-03-21T09:45:25.685Z,42.29
2023-03-21T09:46:25.871Z,41.53
2023-03-21T09:47:25.649Z,39.25
2023-03-21T09:48:25.669Z,41.67
2023-03-21T09:49:25.770Z,41.11
2023-03-21T09:50:25.618Z,43.55
2023-03-21T09:51:25.600Z,43.93
2023-03-21T09:52:25.591Z,42.10
2023-03-21T09:53:25.585Z,45.12
2023-03-21T09:54:25.622Z,44.78
2023-03-21T09:55:25.557Z,46.55
2023-03-21T09:56:25.568Z,45.18
2023-03-21T09:57:25.528Z,45.34
2023-03-21T09:58:25.529Z,41.09
2023-03-21T09:59:25.500Z,42.77
2023-03-21T10:00:25.492Z,40.24
2023-03-21T10:01:25.501Z,41.24
2023-03-21T10:02:25.466Z,41.00
2023-03-21T10:03:25.454Z,42.51
2023-03-21T10:04:25.506Z,42.63
2023-03-21T10:05:25.439Z,43.71
2023-03-21T10:06:25.425Z,45.20
2023-03-21T10:07:25.400Z,45.27
2023-03-21T10:08:25.399Z,44.13
2023-03-21T10:09:25.376Z,44.31
2023-03-21T10:10:25.365Z,42.99
2023-03-21T10:11:25.354Z,41.19
2023-03-21T10:12:25.355Z,42.24
2023-03-21T10:13:25.471Z,42.27
2023-03-21T10:14:25.314Z,44.17
2023-03-21T10:15:25.309Z,46.25
2023-03-21T10:16:25.330Z,45.21
2023-03-21T10:17:25.277Z,45.26
2023-03-21T10:18:25.265Z,44.86
2023-03-21T10:19:25.248Z,46.76
2023-03-21T10:20:25.238Z,45.76
2023-03-21T10:21:51.420Z,47.76
2023-03-21T10:22:26.234Z,44.98
2023-03-21T10:23:25.196Z,47.91
2023-03-21T10:24:25.192Z,49.29
2023-03-21T10:25:25.175Z,46.76
2023-03-21T10:26:25.157Z,45.68
2023-03-21T10:27:25.147Z,45.10
2023-03-21T10:28:25.165Z,45.77
2023-03-21T10:29:25.197Z,46.77
2023-03-21T10:30:25.121Z,47.32
2023-03-21T10:31:25.189Z,48.72
2023-03-21T10:32:25.085Z,47.88
2023-03-21T10:33:25.072Z,47.45
2023-03-21T10:34:25.059Z,47.45
2023-03-21T10:35:25.038Z,50.96
2023-03-21T10:36:25.026Z,48.66
2023-03-21T10:37:25.015Z,47.58
2023-03-21T10:38:25.001Z,50.93
2023-03-21T10:39:24.986Z,52.64
2023-03-21T10:40:24.981Z,49.07
2023-03-21T10:41:24.977Z,51.21
2023-03-21T10:42:24.949Z,50.63
2023-03-21T10:43:24.949Z,51.41
2023-03-21T10:44:24.953Z,51.21
2023-03-21T10:45:24.925Z,51.59
2023-03-21T10:46:25.007Z,49.70
2023-03-21T10:47:25.178Z,50.43
2023-03-21T10:48:25.064Z,51.46
2023-03-21T10:49:24.869Z,52.04
2023-03-21T10:52:03.947Z,52.31
2023-03-21T10:52:57.303Z,50.81
2023-03-21T10:53:57.288Z,50.98
2023-03-21T10:54:57.277Z,49.98
2023-03-21T10:55:57.258Z,51.59
2023-03-21T10:56:57.247Z,51.29
2023-03-21T10:57:57.240Z,50.98
2023-03-21T10:58:57.220Z,52.69
2023-03-21T10:59:57.227Z,49.88
2023-03-21T11:00:57.333Z,50.20
2023-03-21T11:01:57.249Z,50.83
2023-03-21T11:02:57.165Z,52.69
2023-03-21T11:03:57.154Z,53.40
2023-03-21T11:04:57.144Z,53.02
2023-03-21T11:05:57.128Z,56.04
2023-03-21T11:06:57.119Z,53.40
2023-03-21T11:07:57.098Z,52.80
2023-03-21T11:08:57.086Z,53.60
2023-03-21T11:09:57.072Z,53.38
2023-03-21T11:10:57.059Z,54.18
2023-03-21T11:11:57.054Z,54.10
2023-03-21T11:12:57.045Z,52.80
2023-03-21T11:13:57.029Z,53.72
2023-03-21T11:14:57.017Z,53.92
2023-03-21T11:15:57.024Z,53.50
2023-03-21T11:16:57.045Z,54.10
2023-03-21T11:17:56.975Z,53.02
2023-03-21T11:18:57.020Z,54.46
2023-03-21T11:19:57.145Z,54.38
2023-03-21T11:20:56.960Z,53.88
2023-03-21T11:21:56.921Z,55.32
2023-03-21T11:22:56.931Z,54.68
2023-03-21T11:23:57.270Z,54.28
2023-03-21T11:24:56.883Z,54.48
2023-03-21T11:25:56.871Z,54.28
2023-03-21T11:26:56.854Z,54.58
2023-03-21T11:27:56.853Z,54.76
2023-03-21T11:28:56.835Z,53.83
2023-03-21T11:29:56.821Z,54.53
2023-03-21T11:30:56.890Z,54.73
2023-03-21T11:31:56.821Z,56.92
2023-03-21T11:32:56.786Z,53.17
2023-03-21T11:33:56.779Z,54.99
2023-03-21T11:34:56.759Z,53.17
2023-03-21T11:35:56.802Z,52.77
2023-03-21T11:36:56.731Z,53.38
2023-03-21T11:37:56.734Z,52.94
2023-03-21T11:38:56.715Z,52.92
2023-03-21T11:39:56.697Z,52.01
2023-03-21T11:40:56.692Z,51.31
2023-03-21T11:41:56.668Z,51.34
2023-03-21T11:42:56.702Z,52.04
2023-03-21T11:43:56.639Z,51.71
2023-03-21T11:44:56.628Z,52.24
2023-03-21T11:45:56.667Z,52.24
2023-03-21T11:46:56.650Z,51.97
2023-03-21T11:47:56.842Z,52.47
2023-03-21T11:48:56.672Z,52.87
2023-03-21T11:50:04.607Z,52.67
2023-03-21T11:50:57.570Z,53.70
2023-03-21T11:51:56.535Z,53.50
2023-03-21T11:52:56.721Z,53.00
2023-03-21T11:53:56.613Z,55.04
2023-03-21T11:54:56.651Z,52.42
2023-03-21T11:55:56.559Z,54.96
2023-03-21T11:56:56.467Z,54.63
2023-03-21T11:58:00.168Z,55.16
2023-03-21T11:58:56.815Z,55.14
2023-03-21T11:59:56.631Z,53.72
2023-03-21T12:00:56.718Z,53.63
2023-03-21T12:01:56.397Z,54.96
2023-03-21T12:02:56.694Z,54.96
2023-03-21T12:03:56.799Z,56.55
2023-03-21T12:04:56.409Z,55.94
2023-03-21T12:05:56.340Z,55.54
2023-03-21T12:06:56.366Z,54.94
2023-03-21T12:07:56.325Z,54.71
2023-03-21T12:08:56.306Z,53.20
2023-03-21T12:09:56.296Z,53.60
2023-03-21T12:10:56.282Z,52.92
2023-03-21T12:11:56.290Z,53.42
2023-03-21T12:12:56.249Z,53.80
2023-03-21T12:13:56.237Z,52.59
2023-03-21T12:14:56.225Z,50.78
2023-03-21T12:15:56.307Z,52.97
2023-03-21T12:16:56.202Z,51.93
2023-03-21T12:17:56.192Z,52.42
2023-03-21T12:18:56.189Z,50.91
2023-03-21T12:19:56.197Z,48.99
2023-03-21T12:20:56.146Z,48.21
2023-03-21T12:21:56.542Z,49.73
2023-03-21T12:22:56.161Z,50.23
2023-03-21T12:23:56.106Z,48.72
2023-03-21T12:24:56.095Z,49.82
2023-03-21T12:25:56.073Z,48.94
2023-03-21T12:26:57.541Z,49.67
2023-03-21T12:27:56.053Z,48.56
2023-03-21T12:28:56.033Z,48.46
2023-03-21T12:29:56.023Z,49.87
2023-03-21T12:30:56.038Z,50.78
2023-03-21T12:31:55.997Z,49.97
2023-03-21T12:32:55.983Z,49.85
2023-03-21T12:33:55.976Z,50.85
2023-03-21T12:34:55.957Z,48.14
2023-03-21T12:35:56.135Z,49.27
2023-03-21T12:36:55.930Z,49.37
2023-03-21T12:37:57.848Z,49.35
2023-03-21T12:38:55.910Z,49.12
2023-03-21T12:39:55.891Z,49.73
2023-03-21T12:40:55.868Z,47.91
2023-03-21T12:41:55.857Z,47.51
2023-03-21T12:42:55.841Z,47.20
2023-03-21T12:43:55.836Z,46.98
2023-03-21T12:44:55.830Z,45.67
2023-03-21T12:45:55.808Z,46.48
2023-03-21T12:46:55.882Z,46.56
2023-03-21T12:47:55.874Z,46.56
2023-03-21T12:48:55.860Z,46.06
2023-03-21T12:49:55.782Z,45.47
2023-03-21T12:50:55.745Z,44.17
2023-03-21T12:51:55.873Z,46.08
2023-03-21T12:52:55.711Z,42.96
2023-03-21T12:53:55.702Z,44.55